Monday, January 21, 2019, 5:10 PM EST
Back to Local

KBLM, Belmar-farmingdale

Location: Farmingdale, NJ, United States Lat: 40.183
Local Time: 5:10 PM EST (22:10 GMT) Lon: -74.133
Time Zone: US/Eastern Elev: 157 ft

Show me the last for .
Show Coded

Time T Td Feel RH Dir Speed Gust Alt SLP Vis Weather Sky Remarks
2019-01-21 15:56 15 -8 -9 34 290° 26 47 30.15 30.16 10 CLR Peak wind: 47 mph (41 kts) from 290° at 52 min
2019-01-21 14:56 15 -5 -7 39 280° 18 35 30.13 30.14 10 CLR Peak wind: 40 mph (35 kts) from 280° at 58 min
2019-01-21 13:56 14 -5 -8 41 270° 24 36 30.11 30.12 10 FEW050 Peak wind: 41 mph (36 kts) from 290° at 34 min
2019-01-21 12:56 12 -6 -12 43 290° 22 40 30.10 30.12 10 CLR Peak wind: 46 mph (40 kts) from 280° at 42 min
6-hr Min Temp (1pm): 7.0°F
6-hr Max Temp (1pm): 12.9°F
2019-01-21 11:56 12 -6 -12 43 290° 21 41 30.09 30.11 10 CLR Peak wind: 42 mph (37 kts) from 270° at 46 min
2019-01-21 10:56 9 -8 -16 45 300° 26 38 30.09 30.11 10 CLR Peak wind: 39 mph (34 kts) from 270° at 21 min
2019-01-21 09:56 8 -8 -16 46 280° 29 35 30.07 30.09 10 CLR Peak wind: 39 mph (34 kts) from 290° at 22 min
2019-01-21 08:56 7 -9 -18 46 300° 25 37 30.04 30.06 10 CLR Peak wind: 39 mph (34 kts) from 310° at 19 min
2019-01-21 07:56 7 -8 -18 49 290° 18 36 30.01 30.03 10 CLR Peak wind: 41 mph (36 kts) from 300° at 05 min
2019-01-21 06:56 7 -8 -17 49 290° 18 33 29.98 29.99 10 CLR Peak wind: 40 mph (35 kts) from 290° at 12 min
24-hr Precip Total (7am): 0.22"
6-hr Min Temp (7am): 7.0°F
6-hr Max Temp (7am): 12.9°F
2019-01-21 05:56 8 -8 -16 46 280° 25 36 29.94 29.96 10 CLR Peak wind: 40 mph (35 kts) from 290° at 39 min
2019-01-21 04:56 9 -4 -14 54 280° 24 30 29.92 29.94 10 CLR Peak wind: 41 mph (36 kts) from 290° at 57 min
2019-01-21 03:56 10 -4 -15 52 290° 23 41 29.90 29.92 10 CLR Peak wind: 41 mph (36 kts) from 270° at 49 min
2019-01-21 02:56 11 -3 -11 52 290° 25 31 29.88 29.89 10 CLR Peak wind: 40 mph (35 kts) from 300° at 22 min
2019-01-21 01:56 12 -1 -11 55 280° 22 35 29.86 29.88 10 CLR Peak wind: 34 mph (30 kts) from 290° at 53 min
2019-01-21 00:56 13 1 -10 58 300° 24 35 29.82 29.84 10 CLR Peak wind: 41 mph (36 kts) from 290° at 24 min
6-hr Min Temp (1am): 12.9°F
6-hr Max Temp (1am): 19.9°F
2019-01-20 23:56 14 2 -7 57 290° 25 32 29.80 29.81 10 CLR Peak wind: 34 mph (30 kts) from 280° at 26 min
24-hr Min Temp (12am): 14.0°F
24-hr Max Temp (12am): 54.0°F
2019-01-20 22:56 15 3 -8 58 280° 22 41 29.78 29.79 10 FEW034 Peak wind: 41 mph (36 kts) from 320° at 50 min
2019-01-20 21:56 16 4 -7 58 300° 23 40 29.74 29.75 10 FEW034 Peak wind: 40 mph (35 kts) from 280° at 47 min
Pressure rising rapidly
2019-01-20 20:56 17 7 -6 63 300° 21 43 29.70 29.71 10 CLR Peak wind: 42 mph (37 kts) from 310° at 48 min
2019-01-20 19:56 18 8 -4 64 300° 26 41 29.67 29.68 10 CLR Peak wind: 47 mph (41 kts) from 310° at 45 min
2019-01-20 18:56 20 10 -1 64 290° 23 39 29.62 29.64 10 FEW030 Peak wind: 41 mph (36 kts) from 280° at 31 min
6-hr Min Temp (7pm): 19.9°F
6-hr Max Temp (7pm): 42.1°F
2019-01-20 17:56 23 13 2 64 300° 22 47 29.56 29.57 10 CLR Peak wind: 47 mph (41 kts) from 280° at 47 min

Support USWX by starting your Amazon purchase here.